sensor_id;sensor_type;location;lat;lon;timestamp;P1;durP1;ratioP1;P2;durP2;ratioP2
11191;SDS011;5652;48.406;10.820;2023-08-01T00:01:40;8.02;;;3.80;;
11191;SDS011;5652;48.406;10.820;2023-08-01T00:04:08;7.70;;;4.00;;
11191;SDS011;5652;48.406;10.820;2023-08-01T00:06:36;5.70;;;3.60;;
11191;SDS011;5652;48.406;10.820;2023-08-01T00:09:03;6.50;;;3.60;;
11191;SDS011;5652;48.406;10.820;2023-08-01T00:11:30;7.70;;;3.70;;
11191;SDS011;5652;48.406;10.820;2023-08-01T00:13:57;6.97;;;4.10;;
11191;SDS011;5652;48.406;10.820;2023-08-01T00:16:24;7.82;;;4.07;;
11191;SDS011;5652;48.406;10.820;2023-08-01T00:18:51;7.38;;;3.80;;
11191;SDS011;5652;48.406;10.820;2023-08-01T00:21:20;13.93;;;4.27;;
11191;SDS011;5652;48.406;10.820;2023-08-01T00:23:47;4.90;;;3.33;;
11191;SDS011;5652;48.406;10.820;2023-08-01T00:26:14;7.28;;;3.97;;
11191;SDS011;5652;48.406;10.820;2023-08-01T00:28:41;4.85;;;3.33;;
11191;SDS011;5652;48.406;10.820;2023-08-01T00:31:08;6.07;;;3.70;;
11191;SDS011;5652;48.406;10.820;2023-08-01T00:33:36;5.80;;;3.75;;
11191;SDS011;5652;48.406;10.820;2023-08-01T00:36:03;5.72;;;3.50;;
11191;SDS011;5652;48.406;10.820;2023-08-01T00:38:35;5.40;;;3.70;;
11191;SDS011;5652;48.406;10.820;2023-08-01T00:41:02;4.85;;;3.35;;
11191;SDS011;5652;48.406;10.820;2023-08-01T00:43:29;5.20;;;3.37;;
11191;SDS011;5652;48.406;10.820;2023-08-01T00:45:59;4.82;;;3.60;;
11191;SDS011;5652;48.406;10.820;2023-08-01T00:48:26;5.87;;;3.50;;
11191;SDS011;5652;48.406;10.820;2023-08-01T00:50:54;6.73;;;3.40;;
11191;SDS011;5652;48.406;10.820;2023-08-01T00:53:21;7.05;;;3.25;;
11191;SDS011;5652;48.406;10.820;2023-08-01T00:55:50;7.07;;;3.42;;
11191;SDS011;5652;48.406;10.820;2023-08-01T00:58:18;5.13;;;3.40;;
11191;SDS011;5652;48.406;10.820;2023-08-01T01:00:45;6.10;;;3.30;;
11191;SDS011;5652;48.406;10.820;2023-08-01T01:03:13;6.13;;;3.05;;
11191;SDS011;5652;48.406;10.820;2023-08-01T01:05:42;4.85;;;2.90;;
11191;SDS011;5652;48.406;10.820;2023-08-01T01:08:11;4.82;;;3.05;;
11191;SDS011;5652;48.406;10.820;2023-08-01T01:10:38;6.83;;;3.00;;
11191;SDS011;5652;48.406;10.820;2023-08-01T01:13:06;4.40;;;3.22;;
11191;SDS011;5652;48.406;10.820;2023-08-01T01:15:33;4.80;;;3.08;;
11191;SDS011;5652;48.406;10.820;2023-08-01T01:18:01;5.57;;;3.50;;
11191;SDS011;5652;48.406;10.820;2023-08-01T01:20:31;5.72;;;3.15;;
11191;SDS011;5652;48.406;10.820;2023-08-01T01:22:59;4.88;;;3.00;;
11191;SDS011;5652;48.406;10.820;2023-08-01T01:25:26;5.53;;;3.27;;
11191;SDS011;5652;48.406;10.820;2023-08-01T01:27:55;6.47;;;3.28;;
11191;SDS011;5652;48.406;10.820;2023-08-01T01:30:23;7.82;;;3.75;;
11191;SDS011;5652;48.406;10.820;2023-08-01T01:32:50;7.53;;;3.50;;
11191;SDS011;5652;48.406;10.820;2023-08-01T01:35:18;7.65;;;3.50;;
11191;SDS011;5652;48.406;10.820;2023-08-01T01:37:46;6.18;;;4.20;;
11191;SDS011;5652;48.406;10.820;2023-08-01T01:40:13;4.25;;;3.28;;
11191;SDS011;5652;48.406;10.820;2023-08-01T01:42:40;5.85;;;3.60;;
11191;SDS011;5652;48.406;10.820;2023-08-01T01:45:07;7.25;;;3.50;;
11191;SDS011;5652;48.406;10.820;2023-08-01T01:47:35;4.60;;;3.65;;
11191;SDS011;5652;48.406;10.820;2023-08-01T01:50:02;7.97;;;3.40;;
11191;SDS011;5652;48.406;10.820;2023-08-01T01:52:30;6.53;;;3.80;;
11191;SDS011;5652;48.406;10.820;2023-08-01T01:54:59;6.43;;;3.60;;
11191;SDS011;5652;48.406;10.820;2023-08-01T01:57:26;8.27;;;3.60;;
11191;SDS011;5652;48.406;10.820;2023-08-01T01:59:53;5.50;;;3.50;;
11191;SDS011;5652;48.406;10.820;2023-08-01T02:02:20;6.45;;;3.60;;
11191;SDS011;5652;48.406;10.820;2023-08-01T02:04:47;5.45;;;3.40;;
11191;SDS011;5652;48.406;10.820;2023-08-01T02:07:15;5.97;;;3.50;;
11191;SDS011;5652;48.406;10.820;2023-08-01T02:09:42;7.22;;;3.30;;
11191;SDS011;5652;48.406;10.820;2023-08-01T02:12:10;5.85;;;3.47;;
11191;SDS011;5652;48.406;10.820;2023-08-01T02:14:39;5.57;;;3.50;;
11191;SDS011;5652;48.406;10.820;2023-08-01T02:17:06;6.00;;;3.22;;
11191;SDS011;5652;48.406;10.820;2023-08-01T02:19:33;5.25;;;3.20;;
11191;SDS011;5652;48.406;10.820;2023-08-01T02:22:00;6.30;;;3.13;;
11191;SDS011;5652;48.406;10.820;2023-08-01T02:24:27;8.80;;;3.70;;
11191;SDS011;5652;48.406;10.820;2023-08-01T02:26:54;4.43;;;3.30;;
11191;SDS011;5652;48.406;10.820;2023-08-01T02:29:23;3.70;;;2.97;;
11191;SDS011;5652;48.406;10.820;2023-08-01T02:31:50;5.22;;;3.30;;
11191;SDS011;5652;48.406;10.820;2023-08-01T02:34:17;6.22;;;3.22;;
11191;SDS011;5652;48.406;10.820;2023-08-01T02:36:44;5.40;;;3.20;;
11191;SDS011;5652;48.406;10.820;2023-08-01T02:39:11;5.13;;;3.00;;
11191;SDS011;5652;48.406;10.820;2023-08-01T02:41:38;5.90;;;3.45;;
11191;SDS011;5652;48.406;10.820;2023-08-01T02:44:05;6.00;;;2.95;;
11191;SDS011;5652;48.406;10.820;2023-08-01T02:46:36;5.68;;;3.35;;
11191;SDS011;5652;48.406;10.820;2023-08-01T02:49:03;5.68;;;3.40;;
11191;SDS011;5652;48.406;10.820;2023-08-01T02:51:30;6.20;;;3.47;;
11191;SDS011;5652;48.406;10.820;2023-08-01T02:53:57;7.13;;;3.75;;
11191;SDS011;5652;48.406;10.820;2023-08-01T02:56:24;6.07;;;3.65;;
11191;SDS011;5652;48.406;10.820;2023-08-01T02:58:52;4.35;;;3.40;;
11191;SDS011;5652;48.406;10.820;2023-08-01T03:01:20;6.50;;;3.80;;
11191;SDS011;5652;48.406;10.820;2023-08-01T03:03:48;6.25;;;3.72;;
11191;SDS011;5652;48.406;10.820;2023-08-01T03:06:16;5.22;;;3.40;;
11191;SDS011;5652;48.406;10.820;2023-08-01T03:08:43;5.32;;;4.07;;
11191;SDS011;5652;48.406;10.820;2023-08-01T03:11:10;4.82;;;3.60;;
11191;SDS011;5652;48.406;10.820;2023-08-01T03:13:37;6.75;;;3.80;;
11191;SDS011;5652;48.406;10.820;2023-08-01T03:16:05;5.72;;;3.85;;
11191;SDS011;5652;48.406;10.820;2023-08-01T03:18:32;7.25;;;4.15;;
11191;SDS011;5652;48.406;10.820;2023-08-01T03:21:00;5.03;;;3.13;;
11191;SDS011;5652;48.406;10.820;2023-08-01T03:23:28;5.38;;;3.60;;
11191;SDS011;5652;48.406;10.820;2023-08-01T03:25:55;4.85;;;3.50;;
11191;SDS011;5652;48.406;10.820;2023-08-01T03:28:23;6.05;;;3.58;;
11191;SDS011;5652;48.406;10.820;2023-08-01T03:30:50;6.05;;;3.55;;
11191;SDS011;5652;48.406;10.820;2023-08-01T03:33:18;5.93;;;3.50;;
11191;SDS011;5652;48.406;10.820;2023-08-01T03:35:45;6.53;;;4.40;;
11191;SDS011;5652;48.406;10.820;2023-08-01T03:38:14;5.67;;;3.63;;
11191;SDS011;5652;48.406;10.820;2023-08-01T03:40:41;6.32;;;3.80;;
11191;SDS011;5652;48.406;10.820;2023-08-01T03:43:08;5.40;;;3.70;;
11191;SDS011;5652;48.406;10.820;2023-08-01T03:45:36;6.68;;;3.60;;
11191;SDS011;5652;48.406;10.820;2023-08-01T03:48:03;5.67;;;3.97;;
11191;SDS011;5652;48.406;10.820;2023-08-01T03:50:30;4.78;;;3.78;;
11191;SDS011;5652;48.406;10.820;2023-08-01T03:52:57;6.70;;;4.05;;
11191;SDS011;5652;48.406;10.820;2023-08-01T03:55:26;5.27;;;3.90;;
11191;SDS011;5652;48.406;10.820;2023-08-01T03:57:53;7.00;;;4.00;;
11191;SDS011;5652;48.406;10.820;2023-08-01T04:00:20;6.97;;;4.18;;
11191;SDS011;5652;48.406;10.820;2023-08-01T04:02:47;5.10;;;3.70;;
11191;SDS011;5652;48.406;10.820;2023-08-01T04:05:14;5.00;;;3.85;;
11191;SDS011;5652;48.406;10.820;2023-08-01T04:07:41;6.95;;;4.00;;
11191;SDS011;5652;48.406;10.820;2023-08-01T04:10:09;8.07;;;4.22;;
11191;SDS011;5652;48.406;10.820;2023-08-01T04:12:37;6.70;;;4.70;;
11191;SDS011;5652;48.406;10.820;2023-08-01T04:15:05;8.45;;;4.53;;
11191;SDS011;5652;48.406;10.820;2023-08-01T04:17:32;7.18;;;4.82;;
11191;SDS011;5652;48.406;10.820;2023-08-01T04:19:59;7.00;;;4.00;;
11191;SDS011;5652;48.406;10.820;2023-08-01T04:22:26;6.28;;;4.10;;
11191;SDS011;5652;48.406;10.820;2023-08-01T04:24:54;6.88;;;4.78;;
11191;SDS011;5652;48.406;10.820;2023-08-01T04:27:21;7.82;;;4.63;;
11191;SDS011;5652;48.406;10.820;2023-08-01T04:29:49;8.95;;;4.65;;
11191;SDS011;5652;48.406;10.820;2023-08-01T04:32:16;8.33;;;5.20;;
11191;SDS011;5652;48.406;10.820;2023-08-01T04:34:43;8.50;;;5.60;;
11191;SDS011;5652;48.406;10.820;2023-08-01T04:37:10;8.13;;;5.20;;
11191;SDS011;5652;48.406;10.820;2023-08-01T04:39:37;7.13;;;5.40;;
11191;SDS011;5652;48.406;10.820;2023-08-01T04:42:05;10.80;;;5.90;;
11191;SDS011;5652;48.406;10.820;2023-08-01T04:44:32;8.68;;;5.60;;
11191;SDS011;5652;48.406;10.820;2023-08-01T04:47:01;7.72;;;5.68;;
11191;SDS011;5652;48.406;10.820;2023-08-01T04:49:28;9.30;;;5.60;;
11191;SDS011;5652;48.406;10.820;2023-08-01T04:51:55;10.30;;;5.57;;
11191;SDS011;5652;48.406;10.820;2023-08-01T04:54:22;8.98;;;5.28;;
11191;SDS011;5652;48.406;10.820;2023-08-01T04:56:49;9.40;;;5.57;;
11191;SDS011;5652;48.406;10.820;2023-08-01T04:59:17;11.17;;;5.50;;
11191;SDS011;5652;48.406;10.820;2023-08-01T05:01:44;9.63;;;5.20;;
11191;SDS011;5652;48.406;10.820;2023-08-01T05:04:21;7.60;;;4.97;;
11191;SDS011;5652;48.406;10.820;2023-08-01T05:06:48;7.55;;;5.30;;
11191;SDS011;5652;48.406;10.820;2023-08-01T05:09:15;8.20;;;5.20;;
11191;SDS011;5652;48.406;10.820;2023-08-01T05:11:42;8.27;;;4.95;;
11191;SDS011;5652;48.406;10.820;2023-08-01T05:14:09;4.95;;;4.10;;
11191;SDS011;5652;48.406;10.820;2023-08-01T05:16:36;8.10;;;4.70;;
11191;SDS011;5652;48.406;10.820;2023-08-01T05:19:03;6.93;;;4.77;;
11191;SDS011;5652;48.406;10.820;2023-08-01T05:21:32;7.45;;;4.70;;
11191;SDS011;5652;48.406;10.820;2023-08-01T05:24:01;6.10;;;4.30;;
11191;SDS011;5652;48.406;10.820;2023-08-01T05:26:28;7.78;;;4.75;;
11191;SDS011;5652;48.406;10.820;2023-08-01T05:28:55;6.82;;;4.75;;
11191;SDS011;5652;48.406;10.820;2023-08-01T05:31:23;6.82;;;4.78;;
11191;SDS011;5652;48.406;10.820;2023-08-01T05:33:50;6.32;;;4.93;;
11191;SDS011;5652;48.406;10.820;2023-08-01T05:36:17;6.32;;;4.60;;
11191;SDS011;5652;48.406;10.820;2023-08-01T05:38:45;8.23;;;4.82;;
11191;SDS011;5652;48.406;10.820;2023-08-01T05:41:12;7.43;;;4.80;;
11191;SDS011;5652;48.406;10.820;2023-08-01T05:43:39;6.53;;;4.95;;
11191;SDS011;5652;48.406;10.820;2023-08-01T05:46:06;7.10;;;5.20;;
11191;SDS011;5652;48.406;10.820;2023-08-01T05:48:34;9.60;;;4.85;;
11191;SDS011;5652;48.406;10.820;2023-08-01T05:51:01;6.50;;;4.97;;
11191;SDS011;5652;48.406;10.820;2023-08-01T05:53:28;8.95;;;5.15;;
11191;SDS011;5652;48.406;10.820;2023-08-01T05:55:56;6.88;;;5.20;;
11191;SDS011;5652;48.406;10.820;2023-08-01T05:58:23;7.80;;;5.13;;
11191;SDS011;5652;48.406;10.820;2023-08-01T06:00:51;7.57;;;5.30;;
11191;SDS011;5652;48.406;10.820;2023-08-01T06:03:18;6.82;;;5.18;;
11191;SDS011;5652;48.406;10.820;2023-08-01T06:05:45;8.10;;;5.23;;
11191;SDS011;5652;48.406;10.820;2023-08-01T06:08:12;6.68;;;5.18;;
11191;SDS011;5652;48.406;10.820;2023-08-01T06:10:40;7.10;;;4.82;;
11191;SDS011;5652;48.406;10.820;2023-08-01T06:13:09;6.80;;;4.57;;
11191;SDS011;5652;48.406;10.820;2023-08-01T06:15:36;6.68;;;4.47;;
11191;SDS011;5652;48.406;10.820;2023-08-01T06:18:03;9.40;;;4.50;;
11191;SDS011;5652;48.406;10.820;2023-08-01T06:20:30;8.95;;;4.35;;
11191;SDS011;5652;48.406;10.820;2023-08-01T06:22:57;5.82;;;3.70;;
11191;SDS011;5652;48.406;10.820;2023-08-01T06:25:24;5.40;;;3.97;;
11191;SDS011;5652;48.406;10.820;2023-08-01T06:27:52;7.07;;;4.10;;
11191;SDS011;5652;48.406;10.820;2023-08-01T06:30:20;5.93;;;3.63;;
11191;SDS011;5652;48.406;10.820;2023-08-01T06:32:47;6.93;;;4.07;;
11191;SDS011;5652;48.406;10.820;2023-08-01T06:35:14;5.60;;;3.67;;
11191;SDS011;5652;48.406;10.820;2023-08-01T06:37:41;5.75;;;3.63;;
11191;SDS011;5652;48.406;10.820;2023-08-01T06:40:09;5.70;;;3.45;;
11191;SDS011;5652;48.406;10.820;2023-08-01T06:42:36;4.90;;;3.47;;
11191;SDS011;5652;48.406;10.820;2023-08-01T06:45:04;4.72;;;3.30;;
11191;SDS011;5652;48.406;10.820;2023-08-01T06:47:32;5.57;;;3.67;;
11191;SDS011;5652;48.406;10.820;2023-08-01T06:49:59;4.32;;;3.40;;
11191;SDS011;5652;48.406;10.820;2023-08-01T06:52:26;4.57;;;3.50;;
11191;SDS011;5652;48.406;10.820;2023-08-01T06:54:53;6.50;;;3.58;;
11191;SDS011;5652;48.406;10.820;2023-08-01T06:57:20;5.55;;;3.63;;
11191;SDS011;5652;48.406;10.820;2023-08-01T06:59:47;6.35;;;3.70;;
11191;SDS011;5652;48.406;10.820;2023-08-01T07:02:15;4.75;;;3.38;;
11191;SDS011;5652;48.406;10.820;2023-08-01T07:04:43;5.57;;;3.60;;
11191;SDS011;5652;48.406;10.820;2023-08-01T07:07:10;5.85;;;3.63;;
11191;SDS011;5652;48.406;10.820;2023-08-01T07:09:37;4.82;;;3.40;;
11191;SDS011;5652;48.406;10.820;2023-08-01T07:12:05;4.85;;;3.20;;
11191;SDS011;5652;48.406;10.820;2023-08-01T07:14:32;4.32;;;3.20;;
11191;SDS011;5652;48.406;10.820;2023-08-01T07:16:59;4.53;;;3.22;;
11191;SDS011;5652;48.406;10.820;2023-08-01T07:19:26;4.45;;;3.30;;
11191;SDS011;5652;48.406;10.820;2023-08-01T07:21:55;6.03;;;3.30;;
11191;SDS011;5652;48.406;10.820;2023-08-01T07:24:22;3.93;;;3.10;;
11191;SDS011;5652;48.406;10.820;2023-08-01T07:26:49;5.00;;;3.00;;
11191;SDS011;5652;48.406;10.820;2023-08-01T07:29:16;6.10;;;3.40;;
11191;SDS011;5652;48.406;10.820;2023-08-01T07:31:43;5.15;;;3.05;;
11191;SDS011;5652;48.406;10.820;2023-08-01T07:34:11;5.40;;;3.40;;
11191;SDS011;5652;48.406;10.820;2023-08-01T07:36:38;5.90;;;3.20;;
11191;SDS011;5652;48.406;10.820;2023-08-01T07:39:06;5.40;;;3.40;;
11191;SDS011;5652;48.406;10.820;2023-08-01T07:41:33;7.72;;;3.42;;
11191;SDS011;5652;48.406;10.820;2023-08-01T07:44:00;7.50;;;3.55;;
11191;SDS011;5652;48.406;10.820;2023-08-01T07:46:28;4.88;;;3.33;;
11191;SDS011;5652;48.406;10.820;2023-08-01T07:48:55;4.50;;;3.22;;
11191;SDS011;5652;48.406;10.820;2023-08-01T07:51:22;5.05;;;3.20;;
11191;SDS011;5652;48.406;10.820;2023-08-01T07:53:50;5.15;;;3.70;;
11191;SDS011;5652;48.406;10.820;2023-08-01T07:56:19;4.90;;;3.20;;
11191;SDS011;5652;48.406;10.820;2023-08-01T07:58:46;5.45;;;3.45;;
11191;SDS011;5652;48.406;10.820;2023-08-01T08:01:13;4.90;;;3.33;;
11191;SDS011;5652;48.406;10.820;2023-08-01T08:03:40;6.00;;;3.50;;
11191;SDS011;5652;48.406;10.820;2023-08-01T08:06:07;3.03;;;2.38;;
11191;SDS011;5652;48.406;10.820;2023-08-01T08:08:35;4.20;;;3.15;;
11191;SDS011;5652;48.406;10.820;2023-08-01T08:11:02;4.60;;;3.00;;
11191;SDS011;5652;48.406;10.820;2023-08-01T08:13:31;4.85;;;3.10;;
11191;SDS011;5652;48.406;10.820;2023-08-01T08:15:58;5.57;;;3.13;;
11191;SDS011;5652;48.406;10.820;2023-08-01T08:18:25;5.72;;;3.05;;
11191;SDS011;5652;48.406;10.820;2023-08-01T08:20:52;4.90;;;3.13;;
11191;SDS011;5652;48.406;10.820;2023-08-01T08:23:19;4.78;;;3.35;;
11191;SDS011;5652;48.406;10.820;2023-08-01T08:25:46;4.35;;;3.17;;
11191;SDS011;5652;48.406;10.820;2023-08-01T08:28:15;2.92;;;2.40;;
11191;SDS011;5652;48.406;10.820;2023-08-01T08:30:43;4.72;;;2.63;;
11191;SDS011;5652;48.406;10.820;2023-08-01T08:33:20;5.68;;;2.90;;
11191;SDS011;5652;48.406;10.820;2023-08-01T08:35:47;4.60;;;2.80;;
11191;SDS011;5652;48.406;10.820;2023-08-01T08:38:14;5.70;;;2.85;;
11191;SDS011;5652;48.406;10.820;2023-08-01T08:40:43;4.83;;;2.60;;
11191;SDS011;5652;48.406;10.820;2023-08-01T08:43:15;5.00;;;3.03;;
11191;SDS011;5652;48.406;10.820;2023-08-01T08:45:45;5.20;;;2.70;;
11191;SDS011;5652;48.406;10.820;2023-08-01T08:48:13;3.95;;;2.90;;
11191;SDS011;5652;48.406;10.820;2023-08-01T08:50:42;4.20;;;2.80;;
11191;SDS011;5652;48.406;10.820;2023-08-01T08:53:09;5.32;;;2.92;;
11191;SDS011;5652;48.406;10.820;2023-08-01T08:55:41;3.58;;;2.50;;
11191;SDS011;5652;48.406;10.820;2023-08-01T08:58:11;4.60;;;2.55;;
11191;SDS011;5652;48.406;10.820;2023-08-01T09:00:38;5.30;;;2.97;;
11191;SDS011;5652;48.406;10.820;2023-08-01T09:03:06;5.57;;;3.00;;
11191;SDS011;5652;48.406;10.820;2023-08-01T09:05:34;4.53;;;3.08;;
11191;SDS011;5652;48.406;10.820;2023-08-01T09:08:04;5.47;;;2.65;;
11191;SDS011;5652;48.406;10.820;2023-08-01T09:10:34;3.17;;;2.40;;
11191;SDS011;5652;48.406;10.820;2023-08-01T09:13:01;4.35;;;2.70;;
11191;SDS011;5652;48.406;10.820;2023-08-01T09:15:28;4.85;;;2.63;;
11191;SDS011;5652;48.406;10.820;2023-08-01T09:17:56;3.88;;;2.47;;
11191;SDS011;5652;48.406;10.820;2023-08-01T09:20:27;4.32;;;2.70;;
11191;SDS011;5652;48.406;10.820;2023-08-01T09:22:54;4.63;;;2.78;;
11191;SDS011;5652;48.406;10.820;2023-08-01T09:25:30;4.97;;;3.15;;
11191;SDS011;5652;48.406;10.820;2023-08-01T09:27:57;3.42;;;2.80;;
11191;SDS011;5652;48.406;10.820;2023-08-01T09:30:25;4.28;;;2.25;;
11191;SDS011;5652;48.406;10.820;2023-08-01T09:32:53;2.85;;;2.35;;
11191;SDS011;5652;48.406;10.820;2023-08-01T09:35:20;3.65;;;2.60;;
11191;SDS011;5652;48.406;10.820;2023-08-01T09:37:49;3.87;;;2.13;;
11191;SDS011;5652;48.406;10.820;2023-08-01T09:40:16;4.05;;;2.60;;
11191;SDS011;5652;48.406;10.820;2023-08-01T09:42:44;4.55;;;3.20;;
11191;SDS011;5652;48.406;10.820;2023-08-01T09:45:12;4.20;;;2.80;;
11191;SDS011;5652;48.406;10.820;2023-08-01T09:47:40;4.28;;;2.88;;
11191;SDS011;5652;48.406;10.820;2023-08-01T09:50:08;5.40;;;3.40;;
11191;SDS011;5652;48.406;10.820;2023-08-01T09:52:36;4.45;;;2.80;;
11191;SDS011;5652;48.406;10.820;2023-08-01T09:55:05;4.38;;;3.10;;
11191;SDS011;5652;48.406;10.820;2023-08-01T09:57:32;4.72;;;3.17;;
11191;SDS011;5652;48.406;10.820;2023-08-01T10:00:01;4.32;;;2.60;;
11191;SDS011;5652;48.406;10.820;2023-08-01T10:02:29;4.68;;;2.85;;
11191;SDS011;5652;48.406;10.820;2023-08-01T10:04:57;5.70;;;3.20;;
11191;SDS011;5652;48.406;10.820;2023-08-01T10:07:25;4.80;;;2.95;;
11191;SDS011;5652;48.406;10.820;2023-08-01T10:09:53;4.82;;;3.30;;
11191;SDS011;5652;48.406;10.820;2023-08-01T10:12:23;5.88;;;3.20;;
11191;SDS011;5652;48.406;10.820;2023-08-01T10:14:53;5.70;;;3.40;;
11191;SDS011;5652;48.406;10.820;2023-08-01T10:17:21;6.93;;;3.67;;
11191;SDS011;5652;48.406;10.820;2023-08-01T10:19:48;5.72;;;3.92;;
11191;SDS011;5652;48.406;10.820;2023-08-01T10:22:16;5.75;;;3.28;;
11191;SDS011;5652;48.406;10.820;2023-08-01T10:24:44;5.63;;;3.70;;
11191;SDS011;5652;48.406;10.820;2023-08-01T10:27:12;4.75;;;3.30;;
11191;SDS011;5652;48.406;10.820;2023-08-01T10:29:41;5.60;;;3.40;;
11191;SDS011;5652;48.406;10.820;2023-08-01T10:32:08;5.65;;;3.25;;
11191;SDS011;5652;48.406;10.820;2023-08-01T10:34:35;4.93;;;2.90;;
11191;SDS011;5652;48.406;10.820;2023-08-01T10:37:02;4.82;;;3.30;;
11191;SDS011;5652;48.406;10.820;2023-08-01T10:39:29;5.95;;;3.50;;
11191;SDS011;5652;48.406;10.820;2023-08-01T10:41:57;5.70;;;3.10;;
11191;SDS011;5652;48.406;10.820;2023-08-01T10:44:25;4.22;;;2.90;;
11191;SDS011;5652;48.406;10.820;2023-08-01T10:46:54;3.60;;;2.45;;
11191;SDS011;5652;48.406;10.820;2023-08-01T10:49:32;2.80;;;2.40;;
11191;SDS011;5652;48.406;10.820;2023-08-01T10:52:00;3.70;;;2.53;;
11191;SDS011;5652;48.406;10.820;2023-08-01T10:54:30;5.07;;;3.22;;
11191;SDS011;5652;48.406;10.820;2023-08-01T10:57:09;3.77;;;2.50;;
11191;SDS011;5652;48.406;10.820;2023-08-01T10:59:55;3.60;;;2.50;;
11191;SDS011;5652;48.406;10.820;2023-08-01T11:02:25;3.53;;;2.40;;
11191;SDS011;5652;48.406;10.820;2023-08-01T11:04:56;3.05;;;2.17;;
11191;SDS011;5652;48.406;10.820;2023-08-01T11:07:24;3.87;;;2.37;;
11191;SDS011;5652;48.406;10.820;2023-08-01T11:10:02;2.45;;;2.05;;
11191;SDS011;5652;48.406;10.820;2023-08-01T11:12:29;4.50;;;2.40;;
11191;SDS011;5652;48.406;10.820;2023-08-01T11:14:58;2.97;;;2.15;;
11191;SDS011;5652;48.406;10.820;2023-08-01T11:17:27;2.85;;;2.10;;
11191;SDS011;5652;48.406;10.820;2023-08-01T11:20:00;2.93;;;2.10;;
11191;SDS011;5652;48.406;10.820;2023-08-01T11:22:27;2.78;;;2.15;;
11191;SDS011;5652;48.406;10.820;2023-08-01T11:24:55;3.77;;;2.30;;
11191;SDS011;5652;48.406;10.820;2023-08-01T11:27:22;2.97;;;1.98;;
11191;SDS011;5652;48.406;10.820;2023-08-01T11:29:49;3.30;;;2.22;;
11191;SDS011;5652;48.406;10.820;2023-08-01T11:32:16;2.80;;;2.17;;
11191;SDS011;5652;48.406;10.820;2023-08-01T11:34:46;2.72;;;1.92;;
11191;SDS011;5652;48.406;10.820;2023-08-01T11:37:18;3.03;;;2.42;;
11191;SDS011;5652;48.406;10.820;2023-08-01T11:39:45;3.00;;;2.30;;
11191;SDS011;5652;48.406;10.820;2023-08-01T11:42:15;2.83;;;2.10;;
11191;SDS011;5652;48.406;10.820;2023-08-01T11:44:42;4.25;;;2.38;;
11191;SDS011;5652;48.406;10.820;2023-08-01T11:47:10;3.13;;;2.00;;
11191;SDS011;5652;48.406;10.820;2023-08-01T11:49:38;3.67;;;2.15;;
11191;SDS011;5652;48.406;10.820;2023-08-01T11:52:07;4.13;;;2.47;;
11191;SDS011;5652;48.406;10.820;2023-08-01T11:54:43;3.10;;;2.20;;
11191;SDS011;5652;48.406;10.820;2023-08-01T11:57:10;3.50;;;2.55;;
11191;SDS011;5652;48.406;10.820;2023-08-01T11:59:45;3.15;;;2.25;;
11191;SDS011;5652;48.406;10.820;2023-08-01T12:02:20;3.60;;;2.33;;
11191;SDS011;5652;48.406;10.820;2023-08-01T12:04:47;2.63;;;1.98;;
11191;SDS011;5652;48.406;10.820;2023-08-01T12:07:17;3.30;;;2.53;;
11191;SDS011;5652;48.406;10.820;2023-08-01T12:09:44;2.97;;;2.30;;
11191;SDS011;5652;48.406;10.820;2023-08-01T12:12:11;2.17;;;1.88;;
11191;SDS011;5652;48.406;10.820;2023-08-01T12:14:39;3.50;;;2.63;;
11191;SDS011;5652;48.406;10.820;2023-08-01T12:17:06;4.70;;;2.60;;
11191;SDS011;5652;48.406;10.820;2023-08-01T12:19:33;3.80;;;2.08;;
11191;SDS011;5652;48.406;10.820;2023-08-01T12:22:00;3.30;;;1.88;;
11191;SDS011;5652;48.406;10.820;2023-08-01T12:24:28;3.15;;;2.20;;
11191;SDS011;5652;48.406;10.820;2023-08-01T12:26:56;2.08;;;1.63;;
11191;SDS011;5652;48.406;10.820;2023-08-01T12:29:23;2.93;;;1.80;;
11191;SDS011;5652;48.406;10.820;2023-08-01T12:31:50;2.50;;;1.90;;
11191;SDS011;5652;48.406;10.820;2023-08-01T12:34:17;3.08;;;2.10;;
11191;SDS011;5652;48.406;10.820;2023-08-01T12:36:44;3.65;;;2.15;;
11191;SDS011;5652;48.406;10.820;2023-08-01T12:39:11;3.37;;;2.67;;
11191;SDS011;5652;48.406;10.820;2023-08-01T12:41:40;3.75;;;2.70;;
11191;SDS011;5652;48.406;10.820;2023-08-01T12:44:07;3.03;;;2.42;;
11191;SDS011;5652;48.406;10.820;2023-08-01T12:46:34;3.65;;;2.60;;
11191;SDS011;5652;48.406;10.820;2023-08-01T12:49:02;2.40;;;1.90;;
11191;SDS011;5652;48.406;10.820;2023-08-01T12:51:29;2.13;;;1.80;;
11191;SDS011;5652;48.406;10.820;2023-08-01T12:53:56;1.80;;;1.58;;
11191;SDS011;5652;48.406;10.820;2023-08-01T12:56:23;2.30;;;1.77;;
11191;SDS011;5652;48.406;10.820;2023-08-01T12:58:51;2.10;;;1.70;;
11191;SDS011;5652;48.406;10.820;2023-08-01T13:01:18;2.30;;;1.67;;
11191;SDS011;5652;48.406;10.820;2023-08-01T13:03:45;1.70;;;1.60;;
11191;SDS011;5652;48.406;10.820;2023-08-01T13:06:12;2.50;;;1.60;;
11191;SDS011;5652;48.406;10.820;2023-08-01T13:08:40;2.08;;;1.63;;
11191;SDS011;5652;48.406;10.820;2023-08-01T13:11:10;2.47;;;1.80;;
11191;SDS011;5652;48.406;10.820;2023-08-01T13:13:38;2.47;;;1.90;;
11191;SDS011;5652;48.406;10.820;2023-08-01T13:16:06;2.97;;;1.88;;
11191;SDS011;5652;48.406;10.820;2023-08-01T13:18:34;2.40;;;1.90;;
11191;SDS011;5652;48.406;10.820;2023-08-01T13:21:02;2.75;;;2.10;;
11191;SDS011;5652;48.406;10.820;2023-08-01T13:23:29;2.92;;;2.20;;
11191;SDS011;5652;48.406;10.820;2023-08-01T13:25:56;4.32;;;2.40;;
11191;SDS011;5652;48.406;10.820;2023-08-01T13:28:27;3.08;;;2.40;;
11191;SDS011;5652;48.406;10.820;2023-08-01T13:30:54;3.95;;;2.22;;
11191;SDS011;5652;48.406;10.820;2023-08-01T13:33:22;2.97;;;2.40;;
11191;SDS011;5652;48.406;10.820;2023-08-01T13:35:50;2.83;;;2.10;;
11191;SDS011;5652;48.406;10.820;2023-08-01T13:38:18;2.65;;;2.00;;
11191;SDS011;5652;48.406;10.820;2023-08-01T13:40:45;3.28;;;2.20;;
11191;SDS011;5652;48.406;10.820;2023-08-01T13:43:12;2.90;;;2.10;;
11191;SDS011;5652;48.406;10.820;2023-08-01T13:45:39;3.30;;;2.20;;
11191;SDS011;5652;48.406;10.820;2023-08-01T13:48:06;3.00;;;2.17;;
11191;SDS011;5652;48.406;10.820;2023-08-01T13:50:35;2.65;;;1.95;;
11191;SDS011;5652;48.406;10.820;2023-08-01T13:53:02;2.38;;;1.70;;
11191;SDS011;5652;48.406;10.820;2023-08-01T13:55:32;2.38;;;1.70;;
11191;SDS011;5652;48.406;10.820;2023-08-01T13:57:59;2.20;;;1.60;;
11191;SDS011;5652;48.406;10.820;2023-08-01T14:00:26;2.65;;;1.60;;
11191;SDS011;5652;48.406;10.820;2023-08-01T14:02:53;1.20;;;1.10;;
11191;SDS011;5652;48.406;10.820;2023-08-01T14:05:21;2.00;;;1.30;;
11191;SDS011;5652;48.406;10.820;2023-08-01T14:07:49;1.58;;;1.30;;
11191;SDS011;5652;48.406;10.820;2023-08-01T14:10:16;1.20;;;1.10;;
11191;SDS011;5652;48.406;10.820;2023-08-01T14:12:43;1.95;;;1.10;;
11191;SDS011;5652;48.406;10.820;2023-08-01T14:15:10;1.70;;;0.98;;
11191;SDS011;5652;48.406;10.820;2023-08-01T14:17:38;1.10;;;1.00;;
11191;SDS011;5652;48.406;10.820;2023-08-01T14:20:06;1.38;;;1.00;;
11191;SDS011;5652;48.406;10.820;2023-08-01T14:22:34;1.23;;;1.05;;
11191;SDS011;5652;48.406;10.820;2023-08-01T14:25:03;1.10;;;0.90;;
11191;SDS011;5652;48.406;10.820;2023-08-01T14:27:31;0.80;;;0.80;;
11191;SDS011;5652;48.406;10.820;2023-08-01T14:29:59;1.00;;;0.90;;
11191;SDS011;5652;48.406;10.820;2023-08-01T14:32:27;1.58;;;1.05;;
11191;SDS011;5652;48.406;10.820;2023-08-01T14:34:54;0.82;;;0.80;;
11191;SDS011;5652;48.406;10.820;2023-08-01T14:37:21;1.10;;;1.00;;
11191;SDS011;5652;48.406;10.820;2023-08-01T14:39:51;1.03;;;0.90;;
11191;SDS011;5652;48.406;10.820;2023-08-01T14:42:19;1.10;;;0.98;;
11191;SDS011;5652;48.406;10.820;2023-08-01T14:44:50;1.30;;;1.15;;
11191;SDS011;5652;48.406;10.820;2023-08-01T14:47:17;1.93;;;1.07;;
11191;SDS011;5652;48.406;10.820;2023-08-01T14:49:45;2.58;;;1.27;;
11191;SDS011;5652;48.406;10.820;2023-08-01T14:52:12;1.42;;;1.17;;